createdAt,value
2023-03-18T00:00:10.719Z,19.90
2023-03-18T00:02:57.450Z,22.03
2023-03-18T00:05:23.978Z,22.03
2023-03-18T00:07:50.819Z,24.53
2023-03-18T00:10:18.068Z,22.57
2023-03-18T00:12:44.440Z,23.60
2023-03-18T00:15:13.083Z,19.27
2023-03-18T00:17:40.525Z,18.60
2023-03-18T00:20:08.613Z,22.97
2023-03-18T00:22:36.752Z,19.77
2023-03-18T00:25:05.025Z,22.43
2023-03-18T00:27:31.138Z,21.47
2023-03-18T00:29:58.221Z,21.87
2023-03-18T00:32:28.299Z,24.80
2023-03-18T00:34:56.173Z,22.93
2023-03-18T00:37:32.825Z,20.27
2023-03-18T00:40:16.503Z,22.53
2023-03-18T00:42:46.941Z,21.70
2023-03-18T00:45:16.308Z,21.10
2023-03-18T00:47:43.408Z,23.83
2023-03-18T00:50:10.871Z,23.53
2023-03-18T00:52:37.705Z,22.60
2023-03-18T00:55:06.002Z,22.10
2023-03-18T00:57:32.493Z,20.53
2023-03-18T00:59:59.478Z,20.40
2023-03-18T01:02:27.633Z,22.10
2023-03-18T01:04:55.261Z,26.07
2023-03-18T01:07:21.500Z,18.63
2023-03-18T01:09:48.623Z,20.87
2023-03-18T01:12:14.878Z,18.70
2023-03-18T01:14:42.345Z,20.83
2023-03-18T01:17:08.978Z,23.10
2023-03-18T01:19:36.656Z,21.70
2023-03-18T01:22:03.898Z,23.23
2023-03-18T01:24:35.804Z,24.03
2023-03-18T01:27:02.384Z,22.83
2023-03-18T01:29:30.127Z,22.73
2023-03-18T01:31:57.088Z,23.50
2023-03-18T01:34:24.487Z,22.80
2023-03-18T01:36:53.144Z,21.57
2023-03-18T01:39:23.314Z,20.07
2023-03-18T01:41:50.166Z,19.43
2023-03-18T01:44:25.214Z,22.17
2023-03-18T01:46:53.905Z,22.97
2023-03-18T01:49:30.724Z,25.03
2023-03-18T01:52:02.159Z,16.73
2023-03-18T01:54:33.775Z,20.73
2023-03-18T01:57:00.010Z,18.50
2023-03-18T01:59:29.564Z,20.20
2023-03-18T02:02:04.119Z,18.47
2023-03-18T02:04:40.359Z,22.87
2023-03-18T02:07:17.662Z,20.70
2023-03-18T02:09:46.164Z,19.90
2023-03-18T02:12:16.315Z,18.67
2023-03-18T02:14:43.614Z,23.07
2023-03-18T02:17:16.189Z,21.00
2023-03-18T02:19:56.388Z,20.33
2023-03-18T02:22:28.670Z,19.87
2023-03-18T02:25:12.387Z,22.23
2023-03-18T02:27:45.186Z,18.93
2023-03-18T02:30:26.459Z,18.97
2023-03-18T02:32:55.965Z,19.03
2023-03-18T02:35:23.657Z,19.93
2023-03-18T02:37:51.402Z,21.03
2023-03-18T02:40:33.391Z,15.70
2023-03-18T02:43:26.460Z,17.60
2023-03-18T02:46:31.244Z,19.03
2023-03-18T02:49:00.635Z,18.97
2023-03-18T02:51:29.071Z,17.13
2023-03-18T02:54:00.943Z,19.60
2023-03-18T02:56:28.761Z,18.07
2023-03-18T02:58:55.092Z,20.17
2023-03-18T03:01:22.017Z,17.13
2023-03-18T03:03:48.701Z,19.30
2023-03-18T03:06:16.197Z,20.37
2023-03-18T03:08:42.588Z,17.97
2023-03-18T03:11:09.519Z,16.93
2023-03-18T03:13:39.866Z,19.10
2023-03-18T03:16:09.785Z,17.43
2023-03-18T03:18:36.541Z,19.87
2023-03-18T03:21:03.240Z,17.47
2023-03-18T03:23:29.401Z,16.30
2023-03-18T03:25:56.467Z,17.43
2023-03-18T03:28:22.662Z,15.87
2023-03-18T03:30:51.284Z,13.83
2023-03-18T03:33:17.397Z,13.63
2023-03-18T03:35:44.066Z,16.00
2023-03-18T03:38:10.211Z,17.57
2023-03-18T03:40:38.081Z,14.63
2023-03-18T03:43:05.065Z,14.53
2023-03-18T03:45:31.460Z,13.83
2023-03-18T03:47:57.733Z,17.00
2023-03-18T03:50:24.275Z,14.03
2023-03-18T03:52:50.528Z,15.83
2023-03-18T03:55:19.307Z,15.97
2023-03-18T03:57:45.825Z,13.63
2023-03-18T04:00:15.877Z,18.60
2023-03-18T04:02:49.206Z,12.87
2023-03-18T04:05:19.607Z,11.70
2023-03-18T04:07:46.828Z,11.33
2023-03-18T04:10:16.692Z,12.30
2023-03-18T04:12:45.131Z,12.17
2023-03-18T04:15:13.501Z,16.60
2023-03-18T04:17:41.375Z,14.67
2023-03-18T04:20:08.926Z,11.90
2023-03-18T04:22:35.493Z,11.43
2023-03-18T04:25:05.314Z,13.93
2023-03-18T04:27:32.097Z,14.47
2023-03-18T04:30:06.363Z,12.63
2023-03-18T04:32:38.965Z,14.03
2023-03-18T04:35:06.645Z,13.77
2023-03-18T04:37:37.099Z,9.27
2023-03-18T04:40:05.573Z,13.53
2023-03-18T04:42:31.778Z,14.63
2023-03-18T04:44:58.697Z,10.73
2023-03-18T04:47:25.168Z,11.90
2023-03-18T04:49:54.097Z,12.93
2023-03-18T04:52:20.812Z,13.47
2023-03-18T04:54:47.660Z,16.13
2023-03-18T04:57:14.269Z,13.07
2023-03-18T04:59:47.768Z,11.87
2023-03-18T05:02:14.912Z,12.97
2023-03-18T05:04:42.377Z,13.57
2023-03-18T05:07:13.364Z,11.10
2023-03-18T05:09:42.824Z,11.90
2023-03-18T05:12:14.481Z,12.57
2023-03-18T05:14:42.644Z,9.27
2023-03-18T05:17:14.920Z,12.27
2023-03-18T05:19:48.218Z,12.50
2023-03-18T05:22:21.259Z,14.07
2023-03-18T05:24:52.978Z,9.57
2023-03-18T05:27:23.110Z,13.10
2023-03-18T05:30:05.351Z,11.93
2023-03-18T05:32:39.792Z,12.27
2023-03-18T05:35:09.802Z,11.80
2023-03-18T05:37:45.265Z,11.73
2023-03-18T05:40:14.025Z,10.77
2023-03-18T05:42:55.776Z,12.13
2023-03-18T05:45:31.863Z,12.03
2023-03-18T05:47:58.941Z,9.80
2023-03-18T05:50:34.900Z,12.17
2023-03-18T05:53:05.131Z,12.80
2023-03-18T05:55:35.562Z,18.77
2023-03-18T05:58:03.242Z,124.57
2023-03-18T06:00:31.470Z,15.13
2023-03-18T06:03:00.804Z,11.53
2023-03-18T06:05:28.167Z,14.53
2023-03-18T06:07:54.696Z,17.93
2023-03-18T06:10:22.851Z,17.53
2023-03-18T06:12:50.536Z,53.87
2023-03-18T06:15:18.282Z,14.47
2023-03-18T06:17:46.597Z,9.97
2023-03-18T06:20:14.116Z,11.60
2023-03-18T06:22:41.069Z,21.77
2023-03-18T06:25:07.950Z,40.37
2023-03-18T06:27:37.420Z,16.50
2023-03-18T06:30:05.401Z,12.63
2023-03-18T06:32:34.660Z,15.47
2023-03-18T06:35:01.246Z,22.93
2023-03-18T06:37:28.431Z,25.17
2023-03-18T06:39:54.903Z,16.23
2023-03-18T06:42:21.989Z,27.07
2023-03-18T06:45:04.409Z,44.50
2023-03-18T06:47:45.814Z,52.40
2023-03-18T06:50:12.890Z,30.60
2023-03-18T06:52:39.128Z,37.43
2023-03-18T06:55:12.356Z,76.73
2023-03-18T06:57:42.076Z,34.10
2023-03-18T07:00:11.151Z,34.70
2023-03-18T07:02:39.623Z,34.57
2023-03-18T07:05:09.547Z,17.23
2023-03-18T07:07:39.174Z,16.50
2023-03-18T07:10:08.585Z,18.27
2023-03-18T07:12:35.427Z,16.57
2023-03-18T07:15:03.303Z,15.63
2023-03-18T07:17:30.072Z,16.53
2023-03-18T07:19:57.543Z,15.63
2023-03-18T07:22:26.185Z,12.30
2023-03-18T07:24:52.926Z,18.07
2023-03-18T07:27:19.047Z,14.80
2023-03-18T07:29:45.762Z,10.80
2023-03-18T07:32:12.027Z,12.13
2023-03-18T07:34:38.460Z,17.50
2023-03-18T07:37:04.843Z,8.77
2023-03-18T07:39:33.400Z,8.43
2023-03-18T07:41:59.698Z,10.17
2023-03-18T07:44:30.668Z,10.97
2023-03-18T07:46:57.595Z,9.07
2023-03-18T07:49:24.276Z,10.73
2023-03-18T07:51:50.748Z,10.47
2023-03-18T07:54:17.987Z,13.87
2023-03-18T07:56:44.455Z,13.07
2023-03-18T07:59:11.632Z,12.97
2023-03-18T08:01:39.102Z,12.83
2023-03-18T08:04:05.667Z,10.60
2023-03-18T08:06:32.238Z,11.67
2023-03-18T08:08:59.239Z,12.83
2023-03-18T08:11:25.801Z,12.60
2023-03-18T08:13:52.387Z,18.83
2023-03-18T08:16:18.815Z,23.83
2023-03-18T08:18:45.363Z,19.33
2023-03-18T08:21:11.979Z,20.00
2023-03-18T08:23:39.147Z,29.80
2023-03-18T08:26:05.809Z,15.23
2023-03-18T08:28:33.076Z,23.80
2023-03-18T08:30:59.555Z,14.57
2023-03-18T08:33:26.900Z,11.67
2023-03-18T08:35:55.266Z,16.57
2023-03-18T08:38:23.202Z,18.37
2023-03-18T08:40:49.662Z,17.37
2023-03-18T08:43:16.882Z,19.53
2023-03-18T08:45:43.538Z,10.60
2023-03-18T08:48:10.439Z,11.13
2023-03-18T08:50:36.771Z,20.13
2023-03-18T08:53:04.968Z,14.33
2023-03-18T08:55:34.317Z,22.30
2023-03-18T08:58:01.444Z,31.90
2023-03-18T09:00:27.707Z,19.90
2023-03-18T09:02:54.245Z,16.33
2023-03-18T09:05:20.856Z,26.80
2023-03-18T09:07:47.954Z,15.20
2023-03-18T09:10:14.431Z,11.43
2023-03-18T09:12:41.584Z,14.47
2023-03-18T09:15:11.953Z,14.33
2023-03-18T09:17:56.438Z,9.20
2023-03-18T09:20:26.880Z,11.40
2023-03-18T09:22:53.451Z,9.50
2023-03-18T09:25:19.688Z,13.63
2023-03-18T09:27:46.959Z,14.17
2023-03-18T09:30:14.676Z,10.10
2023-03-18T09:32:42.191Z,10.27
2023-03-18T09:35:11.208Z,9.43
2023-03-18T09:37:39.892Z,10.63
2023-03-18T09:40:07.124Z,13.40
2023-03-18T09:42:55.816Z,10.30
2023-03-18T09:45:33.823Z,9.50
2023-03-18T09:48:20.496Z,14.37
2023-03-18T09:50:52.824Z,15.40
2023-03-18T09:53:44.833Z,10.43
2023-03-18T09:56:18.979Z,9.00
2023-03-18T09:58:51.828Z,7.50
2023-03-18T10:01:21.024Z,11.63
2023-03-18T10:04:11.298Z,10.57
2023-03-18T10:06:42.323Z,9.07
2023-03-18T10:09:16.255Z,11.50
2023-03-18T10:11:48.554Z,9.30
2023-03-18T10:15:00.949Z,12.30
2023-03-18T10:17:31.990Z,15.50
2023-03-18T10:20:03.702Z,8.67
2023-03-18T10:22:50.837Z,12.20
2023-03-18T10:25:39.167Z,10.60
2023-03-18T10:28:25.205Z,13.03
2023-03-18T10:30:57.525Z,10.10
2023-03-18T10:33:41.016Z,12.73
2023-03-18T10:36:39.249Z,9.97
2023-03-18T10:39:12.135Z,9.10
2023-03-18T10:41:40.034Z,8.33
2023-03-18T10:44:17.810Z,8.93
2023-03-18T10:46:47.297Z,8.47
2023-03-18T10:49:23.286Z,9.83
2023-03-18T10:51:58.268Z,11.30
2023-03-18T10:54:39.872Z,13.37
2023-03-18T10:57:12.426Z,11.60
2023-03-18T10:59:39.519Z,8.63
2023-03-18T11:02:25.955Z,12.17
2023-03-18T11:05:06.578Z,17.10
2023-03-18T11:07:33.068Z,10.00
2023-03-18T11:10:23.517Z,13.80
2023-03-18T11:12:50.030Z,12.37
2023-03-18T11:15:19.479Z,10.57
2023-03-18T11:17:49.429Z,10.23
2023-03-18T11:20:46.841Z,9.90
2023-03-18T11:23:18.570Z,9.10
2023-03-18T11:25:47.899Z,13.37
2023-03-18T11:28:26.256Z,13.33
2023-03-18T11:30:56.822Z,11.50
2023-03-18T11:33:26.864Z,10.57
2023-03-18T11:36:08.248Z,10.80
2023-03-18T11:38:36.395Z,14.37
2023-03-18T11:41:16.273Z,12.33
2023-03-18T11:43:55.183Z,11.57
2023-03-18T11:46:26.355Z,9.30
2023-03-18T11:48:52.831Z,9.33
2023-03-18T11:51:57.475Z,8.57
2023-03-18T11:54:48.390Z,12.83
2023-03-18T11:57:26.769Z,14.70
2023-03-18T12:00:05.314Z,8.17
2023-03-18T12:02:49.879Z,12.73
2023-03-18T12:05:41.481Z,9.30
2023-03-18T12:08:09.261Z,8.23
2023-03-18T12:10:40.854Z,17.33
2023-03-18T12:13:29.057Z,17.20
2023-03-18T12:16:12.360Z,12.33
2023-03-18T12:18:50.167Z,13.07
2023-03-18T12:21:23.472Z,12.53
2023-03-18T12:24:00.821Z,13.47
2023-03-18T12:26:58.913Z,31.77
2023-03-18T12:29:38.934Z,20.80
2023-03-18T12:32:17.269Z,11.83
2023-03-18T12:35:07.223Z,9.77
2023-03-18T12:37:58.668Z,14.27
2023-03-18T12:40:47.713Z,10.50
2023-03-18T12:43:33.243Z,9.27
2023-03-18T12:46:09.390Z,8.30
2023-03-18T12:48:49.873Z,8.23
2023-03-18T12:51:23.049Z,8.03
2023-03-18T12:53:54.509Z,9.03
2023-03-18T12:56:25.034Z,7.23
2023-03-18T12:59:07.406Z,7.83
2023-03-18T13:01:47.280Z,8.63
2023-03-18T13:04:23.838Z,11.77
2023-03-18T13:07:17.882Z,15.40
2023-03-18T13:09:54.966Z,9.30
2023-03-18T13:12:31.059Z,9.87
2023-03-18T13:15:04.182Z,9.47
2023-03-18T13:17:54.433Z,8.70
2023-03-18T13:20:22.758Z,9.03
2023-03-18T13:23:04.338Z,13.07
2023-03-18T13:25:58.284Z,8.43
2023-03-18T13:28:31.314Z,12.90
2023-03-18T13:31:06.647Z,9.00
2023-03-18T13:33:54.598Z,11.73
2023-03-18T13:36:42.858Z,23.20
2023-03-18T13:39:39.855Z,14.23
2023-03-18T13:42:21.494Z,12.67
2023-03-18T13:45:04.347Z,9.53
2023-03-18T13:47:34.096Z,18.30
2023-03-18T13:50:20.522Z,13.43
2023-03-18T13:52:48.451Z,12.00
2023-03-18T13:55:31.964Z,11.27
2023-03-18T13:58:04.947Z,8.03
2023-03-18T14:00:42.271Z,12.53
2023-03-18T14:03:18.634Z,12.33
2023-03-18T14:05:46.242Z,20.60
2023-03-18T14:08:37.528Z,11.97
2023-03-18T14:11:25.272Z,9.03
2023-03-18T14:13:52.753Z,10.93
2023-03-18T14:16:27.428Z,11.97
2023-03-18T14:19:01.151Z,8.80
2023-03-18T14:21:30.324Z,8.90
2023-03-18T14:24:11.937Z,10.90
2023-03-18T14:26:38.883Z,10.53
2023-03-18T14:29:05.257Z,12.10
2023-03-18T14:31:33.002Z,9.07
2023-03-18T14:34:22.597Z,14.73
2023-03-18T14:36:51.686Z,9.97
2023-03-18T14:39:24.990Z,9.43
2023-03-18T14:41:54.616Z,11.97
2023-03-18T14:44:52.137Z,13.47
2023-03-18T14:47:38.344Z,13.00
2023-03-18T14:50:13.904Z,10.70
2023-03-18T14:52:43.058Z,10.93
2023-03-18T14:55:24.895Z,9.50
2023-03-18T14:57:51.886Z,13.20
2023-03-18T15:00:21.168Z,11.10
2023-03-18T15:02:53.358Z,9.97
2023-03-18T15:05:22.068Z,28.47
2023-03-18T15:07:52.067Z,13.33
2023-03-18T15:10:25.568Z,13.27
2023-03-18T15:13:06.558Z,15.80
2023-03-18T15:15:35.186Z,11.50
2023-03-18T15:18:23.744Z,10.30
2023-03-18T15:20:56.616Z,10.93
2023-03-18T15:23:50.916Z,18.10
2023-03-18T15:26:28.601Z,30.97
2023-03-18T15:29:00.121Z,188.20
2023-03-18T15:31:31.370Z,149.00
2023-03-18T15:34:17.448Z,72.13
2023-03-18T15:36:52.345Z,38.77
2023-03-18T15:39:35.391Z,32.20
2023-03-18T15:42:13.466Z,22.37
2023-03-18T15:44:41.455Z,23.10
2023-03-18T15:47:23.361Z,23.57
2023-03-18T15:50:12.400Z,43.63
2023-03-18T15:52:42.235Z,44.53
2023-03-18T15:55:48.336Z,36.80
2023-03-18T15:58:22.444Z,33.13
2023-03-18T16:00:49.866Z,49.03
2023-03-18T16:03:22.703Z,56.13
2023-03-18T16:05:50.468Z,54.27
2023-03-18T16:08:20.320Z,38.80
2023-03-18T16:10:49.832Z,28.10
2023-03-18T16:13:23.714Z,19.50
2023-03-18T16:15:53.701Z,27.50
2023-03-18T16:18:21.046Z,62.63
2023-03-18T16:20:48.123Z,58.57
2023-03-18T16:23:16.043Z,61.37
2023-03-18T16:25:48.849Z,64.07
2023-03-18T16:28:22.642Z,39.73
2023-03-18T16:30:51.674Z,23.83
2023-03-18T16:33:19.929Z,19.23
2023-03-18T16:35:53.822Z,22.90
2023-03-18T16:38:20.409Z,21.50
2023-03-18T16:40:46.793Z,16.70
2023-03-18T16:43:19.062Z,15.30
2023-03-18T16:45:46.723Z,25.53
2023-03-18T16:48:16.680Z,14.13
2023-03-18T16:50:47.145Z,17.03
2023-03-18T16:53:19.877Z,16.30
2023-03-18T16:55:50.201Z,18.27
2023-03-18T16:58:23.033Z,15.33
2023-03-18T17:00:50.516Z,16.97
2023-03-18T17:03:18.838Z,13.67
2023-03-18T17:05:49.603Z,16.93
2023-03-18T17:08:17.569Z,16.33
2023-03-18T17:10:44.995Z,11.50
2023-03-18T17:13:18.481Z,16.13
2023-03-18T17:15:45.374Z,17.67
2023-03-18T17:18:15.019Z,21.10
2023-03-18T17:20:43.518Z,22.00
2023-03-18T17:23:21.556Z,20.97
2023-03-18T17:25:53.622Z,23.57
2023-03-18T17:28:37.185Z,18.87
2023-03-18T17:31:04.693Z,20.17
2023-03-18T17:33:34.838Z,17.77
2023-03-18T17:36:01.924Z,38.73
2023-03-18T17:38:34.125Z,234.03
2023-03-18T17:41:03.394Z,50.17
2023-03-18T17:43:35.491Z,26.03
2023-03-18T17:46:03.525Z,23.83
2023-03-18T17:48:32.305Z,26.63
2023-03-18T17:51:06.437Z,19.50
2023-03-18T17:53:38.772Z,22.67
2023-03-18T17:56:09.091Z,26.50
2023-03-18T17:58:36.135Z,23.57
2023-03-18T18:01:08.002Z,25.33
2023-03-18T18:03:38.115Z,26.87
2023-03-18T18:06:06.538Z,24.20
2023-03-18T18:08:33.647Z,21.30
2023-03-18T18:11:12.438Z,26.57
2023-03-18T18:13:39.334Z,25.77
2023-03-18T18:16:05.935Z,27.43
2023-03-18T18:18:34.375Z,27.87
2023-03-18T18:21:02.597Z,30.37
2023-03-18T18:23:35.326Z,25.63
2023-03-18T18:26:03.936Z,26.07
2023-03-18T18:28:33.298Z,24.30
2023-03-18T18:31:04.721Z,25.80
2023-03-18T18:33:33.285Z,25.30
2023-03-18T18:36:00.253Z,24.23
2023-03-18T18:38:27.715Z,23.27
2023-03-18T18:40:55.614Z,23.10
2023-03-18T18:43:23.988Z,20.53
2023-03-18T18:45:52.126Z,26.93
2023-03-18T18:48:29.255Z,35.07
2023-03-18T18:50:56.552Z,49.83
2023-03-18T18:53:29.339Z,64.67
2023-03-18T18:55:57.823Z,52.87
2023-03-18T18:58:31.926Z,57.50
2023-03-18T19:00:59.246Z,52.90
2023-03-18T19:03:30.400Z,51.20
2023-03-18T19:05:59.401Z,51.53
2023-03-18T19:08:35.601Z,49.17
2023-03-18T19:11:04.641Z,46.40
2023-03-18T19:13:33.610Z,45.53
2023-03-18T19:16:06.950Z,37.87
2023-03-18T19:18:38.702Z,45.53
2023-03-18T19:21:06.217Z,59.50
2023-03-18T19:23:34.615Z,71.33
2023-03-18T19:26:05.502Z,66.17
2023-03-18T19:28:57.001Z,68.50
2023-03-18T19:31:26.359Z,69.00
2023-03-18T19:33:53.791Z,57.73
2023-03-18T19:36:22.558Z,56.50
2023-03-18T19:38:50.255Z,57.00
2023-03-18T19:41:16.793Z,57.53
2023-03-18T19:43:43.522Z,56.57
2023-03-18T19:46:38.612Z,51.67
2023-03-18T19:49:24.324Z,55.10
2023-03-18T19:51:51.585Z,47.87
2023-03-18T19:54:48.303Z,50.73
2023-03-18T19:57:28.570Z,48.83
2023-03-18T20:00:00.786Z,52.53
2023-03-18T20:02:30.028Z,49.57
2023-03-18T20:05:03.013Z,52.23
2023-03-18T20:07:32.057Z,45.00
2023-03-18T20:09:59.052Z,68.90
2023-03-18T20:12:31.119Z,72.77
2023-03-18T20:14:57.898Z,73.77
2023-03-18T20:17:41.822Z,93.27
2023-03-18T20:20:19.048Z,99.93
2023-03-18T20:22:52.713Z,118.77
2023-03-18T20:25:23.863Z,92.83
2023-03-18T20:27:52.818Z,127.20
2023-03-18T20:30:28.678Z,94.37
2023-03-18T20:32:56.229Z,70.30
2023-03-18T20:35:28.445Z,59.27
2023-03-18T20:37:56.727Z,61.23
2023-03-18T20:40:26.351Z,56.53
2023-03-18T20:42:53.149Z,63.47
2023-03-18T20:45:22.835Z,63.20
2023-03-18T20:47:49.470Z,86.53
2023-03-18T20:50:23.965Z,75.90
2023-03-18T20:52:50.971Z,101.17
2023-03-18T20:55:25.136Z,100.83
2023-03-18T20:57:52.580Z,111.57
2023-03-18T21:00:23.884Z,146.77
2023-03-18T21:02:53.168Z,106.63
2023-03-18T21:05:21.091Z,102.73
2023-03-18T21:07:48.197Z,105.97
2023-03-18T21:10:19.599Z,115.20
2023-03-18T21:12:47.179Z,135.93
2023-03-18T21:15:23.486Z,123.37
2023-03-18T21:17:50.622Z,117.80
2023-03-18T21:20:22.432Z,116.73
2023-03-18T21:22:50.246Z,126.33
2023-03-18T21:25:22.742Z,101.63
2023-03-18T21:27:50.149Z,147.73
2023-03-18T21:30:18.871Z,127.90
2023-03-18T21:32:45.740Z,115.40
2023-03-18T21:35:24.992Z,128.00
2023-03-18T21:40:44.461Z,105.80
2023-03-18T21:43:40.774Z,105.70
2023-03-18T21:46:12.920Z,101.17
2023-03-18T21:48:40.131Z,85.03
2023-03-18T21:51:13.783Z,88.70
2023-03-18T21:53:40.766Z,124.73
2023-03-18T21:56:10.144Z,123.67
2023-03-18T21:58:36.921Z,117.50
2023-03-18T22:01:03.296Z,116.37
2023-03-18T22:03:30.340Z,114.00
2023-03-18T22:05:56.843Z,104.00
2023-03-18T22:08:24.660Z,105.83
2023-03-18T22:10:51.508Z,98.33
2023-03-18T22:13:23.494Z,112.90
2023-03-18T22:15:51.223Z,109.00
2023-03-18T22:18:37.127Z,114.67
2023-03-18T22:21:09.177Z,103.03
2023-03-18T22:23:35.929Z,105.47
2023-03-18T22:26:04.779Z,99.57
2023-03-18T22:28:31.608Z,98.70
2023-03-18T22:30:58.002Z,99.03
2023-03-18T22:33:31.078Z,92.20
2023-03-18T22:36:00.391Z,80.13
2023-03-18T22:38:28.503Z,68.03
2023-03-18T22:40:56.350Z,67.40
2023-03-18T22:43:32.981Z,65.43
2023-03-18T22:46:00.831Z,57.47
2023-03-18T22:48:27.868Z,57.60
2023-03-18T22:50:57.648Z,56.17
2023-03-18T22:53:31.604Z,60.30
2023-03-18T22:56:04.702Z,58.63
2023-03-18T22:58:31.180Z,57.40
2023-03-18T23:00:57.307Z,59.83
2023-03-18T23:03:29.711Z,60.83
2023-03-18T23:05:57.408Z,54.73
2023-03-18T23:08:24.427Z,54.20
2023-03-18T23:10:52.129Z,55.93
2023-03-18T23:13:29.179Z,48.47
2023-03-18T23:15:55.720Z,53.73
2023-03-18T23:18:23.264Z,58.93
2023-03-18T23:20:51.054Z,51.73
2023-03-18T23:23:20.158Z,51.60
2023-03-18T23:25:47.800Z,58.10
2023-03-18T23:28:14.736Z,79.53
2023-03-18T23:30:44.262Z,117.77
2023-03-18T23:33:10.861Z,121.63
2023-03-18T23:35:37.755Z,91.03
2023-03-18T23:38:05.799Z,87.30
2023-03-18T23:40:32.596Z,81.33
2023-03-18T23:42:59.453Z,93.43
2023-03-18T23:45:27.166Z,72.03
2023-03-18T23:47:55.321Z,82.90
2023-03-18T23:50:21.778Z,87.93
2023-03-18T23:52:48.216Z,93.50
2023-03-18T23:55:31.082Z,93.77
2023-03-18T23:58:00.675Z,98.67
